createdAt,value
2018-12-26T00:00:44.914Z,4.60
2018-12-26T00:03:12.635Z,4.60
2018-12-26T00:05:40.495Z,4.60
2018-12-26T00:08:08.181Z,4.60
2018-12-26T00:10:36.428Z,4.50
2018-12-26T00:13:04.136Z,4.40
2018-12-26T00:15:32.714Z,4.40
2018-12-26T00:18:00.420Z,4.40
2018-12-26T00:20:28.189Z,4.40
2018-12-26T00:22:55.878Z,4.30
2018-12-26T00:25:23.620Z,4.30
2018-12-26T00:27:51.285Z,4.30
2018-12-26T00:30:19.000Z,4.30
2018-12-26T00:32:46.617Z,4.20
2018-12-26T00:35:14.300Z,4.10
2018-12-26T00:37:41.986Z,4.10
2018-12-26T00:40:09.698Z,4.00
2018-12-26T00:42:37.395Z,4.10
2018-12-26T00:45:05.775Z,4.10
2018-12-26T00:47:33.497Z,4.10
2018-12-26T00:50:01.195Z,4.20
2018-12-26T00:52:28.894Z,4.30
2018-12-26T00:54:56.617Z,4.40
2018-12-26T00:57:24.413Z,4.40
2018-12-26T00:59:52.103Z,4.40
2018-12-26T01:02:19.842Z,4.40
2018-12-26T01:04:47.538Z,4.40
2018-12-26T01:07:15.236Z,4.30
2018-12-26T01:09:42.961Z,4.30
2018-12-26T01:12:10.773Z,4.20
2018-12-26T01:14:38.517Z,4.10
2018-12-26T01:17:06.285Z,4.00
2018-12-26T01:19:33.989Z,3.90
2018-12-26T01:22:01.680Z,3.90
2018-12-26T01:24:29.389Z,3.90
2018-12-26T01:26:57.098Z,3.90
2018-12-26T01:29:24.883Z,3.90
2018-12-26T01:31:52.749Z,3.80
2018-12-26T01:34:20.450Z,3.70
2018-12-26T01:36:48.148Z,3.70
2018-12-26T01:39:15.875Z,3.70
2018-12-26T01:41:43.582Z,3.70
2018-12-26T01:44:11.283Z,3.70
2018-12-26T01:46:39.059Z,3.80
2018-12-26T01:49:06.696Z,3.90
2018-12-26T01:51:34.394Z,3.90
2018-12-26T01:54:02.156Z,3.90
2018-12-26T01:56:29.861Z,3.90
2018-12-26T01:58:57.548Z,3.80
2018-12-26T02:01:25.273Z,3.80
2018-12-26T02:03:52.980Z,3.70
2018-12-26T02:06:20.661Z,3.60
2018-12-26T02:08:48.428Z,3.50
2018-12-26T02:11:16.134Z,3.40
2018-12-26T02:13:43.838Z,3.30
2018-12-26T02:16:11.577Z,3.30
2018-12-26T02:18:39.365Z,3.30
2018-12-26T02:21:07.068Z,3.30
2018-12-26T02:23:34.798Z,3.30
2018-12-26T02:26:02.499Z,3.20
2018-12-26T02:28:30.188Z,3.20
2018-12-26T02:30:57.917Z,3.10
2018-12-26T02:33:25.635Z,3.10
2018-12-26T02:35:53.329Z,3.10
2018-12-26T02:38:21.276Z,3.20
2018-12-26T02:40:48.970Z,3.20
2018-12-26T02:43:16.677Z,3.20
2018-12-26T02:45:44.397Z,3.20
2018-12-26T02:48:12.098Z,3.20
2018-12-26T02:50:39.785Z,3.20
2018-12-26T02:53:07.514Z,3.20
2018-12-26T02:55:35.207Z,3.20
2018-12-26T02:58:02.899Z,3.30
2018-12-26T03:00:30.640Z,3.30
2018-12-26T03:02:58.333Z,3.30
2018-12-26T03:05:26.034Z,3.40
2018-12-26T03:07:53.753Z,3.40
2018-12-26T03:10:21.481Z,3.40
2018-12-26T03:12:49.184Z,3.30
2018-12-26T03:15:16.900Z,3.30
2018-12-26T03:17:44.588Z,3.30
2018-12-26T03:20:12.281Z,3.30
2018-12-26T03:22:40.017Z,3.20
2018-12-26T03:25:07.739Z,3.10
2018-12-26T03:27:35.421Z,3.10
2018-12-26T03:30:03.257Z,3.20
2018-12-26T03:32:31.035Z,3.20
2018-12-26T03:34:58.730Z,3.20
2018-12-26T03:37:26.450Z,3.30
2018-12-26T03:39:54.321Z,3.40
2018-12-26T03:42:22.015Z,3.40
2018-12-26T03:44:49.806Z,3.40
2018-12-26T03:47:17.505Z,3.30
2018-12-26T03:49:45.237Z,3.20
2018-12-26T03:52:12.961Z,3.20
2018-12-26T03:54:40.689Z,3.10
2018-12-26T03:57:08.414Z,3.10
2018-12-26T03:59:36.128Z,3.00
2018-12-26T04:02:03.855Z,3.00
2018-12-26T04:04:31.549Z,2.90
2018-12-26T04:06:59.278Z,2.90
2018-12-26T04:09:26.990Z,2.90
2018-12-26T04:11:54.808Z,2.80
2018-12-26T04:14:22.500Z,2.80
2018-12-26T04:16:50.265Z,2.80
2018-12-26T04:19:17.970Z,2.80
2018-12-26T04:21:45.680Z,2.80
2018-12-26T04:24:13.385Z,2.80
2018-12-26T04:26:41.077Z,2.80
2018-12-26T04:29:08.785Z,2.90
2018-12-26T04:31:36.568Z,2.90
2018-12-26T04:34:04.261Z,3.00
2018-12-26T04:36:31.996Z,3.10
2018-12-26T04:38:59.688Z,3.10
2018-12-26T04:41:27.406Z,3.10
2018-12-26T04:43:55.285Z,3.20
2018-12-26T04:46:22.969Z,3.30
2018-12-26T04:48:50.688Z,3.30
2018-12-26T04:51:18.403Z,3.40
2018-12-26T04:53:46.160Z,3.40
2018-12-26T04:56:13.918Z,3.40
2018-12-26T04:58:41.660Z,3.50
2018-12-26T05:01:09.349Z,3.50
2018-12-26T05:03:37.060Z,3.50
2018-12-26T05:06:04.805Z,3.40
2018-12-26T05:08:32.509Z,3.40
2018-12-26T05:11:00.309Z,3.40
2018-12-26T05:13:28.158Z,3.40
2018-12-26T05:15:55.843Z,3.40
2018-12-26T05:18:23.537Z,3.50
2018-12-26T05:20:51.250Z,3.50
2018-12-26T05:23:18.949Z,3.60
2018-12-26T05:25:46.743Z,3.50
2018-12-26T05:28:14.455Z,3.50
2018-12-26T05:30:42.161Z,3.40
2018-12-26T05:33:09.911Z,3.40
2018-12-26T05:35:37.634Z,3.30
2018-12-26T05:38:05.314Z,3.10
2018-12-26T05:40:33.001Z,3.00
2018-12-26T05:43:00.837Z,2.90
2018-12-26T05:45:28.537Z,2.80
2018-12-26T05:47:56.236Z,2.70
2018-12-26T05:50:23.975Z,2.60
2018-12-26T05:52:51.765Z,2.60
2018-12-26T05:55:19.469Z,2.50
2018-12-26T05:57:47.193Z,2.50
2018-12-26T06:00:14.918Z,2.50
2018-12-26T06:02:42.614Z,2.50
2018-12-26T06:05:10.337Z,2.50
2018-12-26T06:07:38.049Z,2.40
2018-12-26T06:10:05.946Z,2.40
2018-12-26T06:12:33.758Z,2.50
2018-12-26T06:15:01.563Z,2.70
2018-12-26T06:17:29.295Z,2.90
2018-12-26T06:19:57.041Z,2.90
2018-12-26T06:22:24.765Z,3.00
2018-12-26T06:24:52.470Z,3.00
2018-12-26T06:27:20.311Z,3.00
2018-12-26T06:29:47.999Z,3.10
2018-12-26T06:32:15.674Z,3.20
2018-12-26T06:34:43.394Z,3.10
2018-12-26T06:37:11.093Z,3.10
2018-12-26T06:39:38.777Z,3.20
2018-12-26T06:42:06.516Z,3.30
2018-12-26T06:44:34.245Z,3.40
2018-12-26T06:47:01.944Z,3.40
2018-12-26T06:49:29.649Z,3.30
2018-12-26T06:51:57.345Z,3.20
2018-12-26T06:54:25.038Z,3.00
2018-12-26T06:56:53.845Z,2.90
2018-12-26T06:59:21.538Z,2.70
2018-12-26T07:01:49.261Z,2.60
2018-12-26T07:04:16.989Z,2.60
2018-12-26T07:06:44.710Z,2.50
2018-12-26T07:09:12.421Z,2.40
2018-12-26T07:11:40.150Z,2.40
2018-12-26T07:14:07.841Z,2.40
2018-12-26T07:16:35.739Z,2.40
2018-12-26T07:19:03.449Z,2.40
2018-12-26T07:21:31.185Z,2.40
2018-12-26T07:23:58.877Z,2.30
2018-12-26T07:26:26.588Z,2.30
2018-12-26T07:28:54.284Z,2.30
2018-12-26T07:31:21.977Z,2.30
2018-12-26T07:33:49.697Z,2.30
2018-12-26T07:36:17.413Z,2.30
2018-12-26T07:38:45.109Z,2.30
2018-12-26T07:41:12.853Z,2.40
2018-12-26T07:43:40.540Z,2.40
2018-12-26T07:46:08.297Z,2.50
2018-12-26T07:48:36.047Z,2.50
2018-12-26T07:51:03.775Z,2.60
2018-12-26T07:53:31.473Z,2.60
2018-12-26T07:55:59.196Z,2.70
2018-12-26T07:58:26.904Z,2.80
2018-12-26T08:00:54.601Z,2.90
2018-12-26T08:03:22.334Z,2.90
2018-12-26T08:05:50.046Z,3.00
2018-12-26T08:08:17.936Z,3.10
2018-12-26T08:10:45.589Z,3.20
2018-12-26T08:13:13.515Z,3.30
2018-12-26T08:15:41.251Z,3.40
2018-12-26T08:18:09.346Z,3.50
2018-12-26T08:20:37.057Z,3.60
2018-12-26T08:23:04.770Z,3.70
2018-12-26T08:25:32.522Z,3.80
2018-12-26T08:28:00.213Z,3.90
2018-12-26T08:30:27.839Z,4.00
2018-12-26T08:32:55.638Z,4.20
2018-12-26T08:35:23.373Z,4.30
2018-12-26T08:37:51.079Z,4.40
2018-12-26T08:40:18.817Z,4.50
2018-12-26T08:42:46.512Z,4.60
2018-12-26T08:45:14.232Z,4.80
2018-12-26T08:47:42.597Z,4.90
2018-12-26T08:50:10.343Z,5.10
2018-12-26T08:52:38.013Z,5.30
2018-12-26T08:55:06.232Z,5.40
2018-12-26T08:57:33.930Z,5.50
2018-12-26T09:00:01.668Z,5.60
2018-12-26T09:02:29.393Z,5.80
2018-12-26T09:04:57.133Z,5.90
2018-12-26T09:07:24.829Z,6.00
2018-12-26T09:09:52.865Z,6.10
2018-12-26T09:12:20.556Z,6.30
2018-12-26T09:14:48.250Z,6.50
2018-12-26T09:17:15.974Z,6.60
2018-12-26T09:19:43.709Z,6.60
2018-12-26T09:22:11.465Z,6.70
2018-12-26T09:24:39.294Z,6.90
2018-12-26T09:27:10.211Z,7.00
2018-12-26T09:29:37.913Z,7.10
2018-12-26T09:32:05.639Z,7.30
2018-12-26T09:34:33.329Z,7.40
2018-12-26T09:37:01.025Z,7.50
2018-12-26T09:39:28.757Z,7.50
2018-12-26T09:41:56.449Z,7.60
2018-12-26T09:44:24.153Z,7.70
2018-12-26T09:46:51.881Z,7.70
2018-12-26T09:49:19.581Z,7.80
2018-12-26T09:51:47.281Z,7.90
2018-12-26T09:54:15.241Z,8.00
2018-12-26T09:56:42.883Z,8.10
2018-12-26T09:59:10.596Z,8.10
2018-12-26T10:01:38.298Z,8.20
2018-12-26T10:04:05.998Z,8.30
2018-12-26T10:06:33.723Z,8.30
2018-12-26T10:09:01.449Z,8.40
2018-12-26T10:11:29.148Z,8.40
2018-12-26T10:13:56.858Z,8.50
2018-12-26T10:16:24.576Z,8.50
2018-12-26T10:18:52.304Z,8.60
2018-12-26T10:21:19.988Z,8.70
2018-12-26T10:23:47.881Z,8.70
2018-12-26T10:26:15.576Z,8.80
2018-12-26T10:28:43.173Z,8.90
2018-12-26T10:31:10.801Z,8.90
2018-12-26T10:33:38.529Z,9.00
2018-12-26T10:36:06.219Z,9.10
2018-12-26T10:38:33.979Z,9.10
2018-12-26T10:41:01.669Z,9.20
2018-12-26T10:43:29.481Z,9.20
2018-12-26T10:45:57.221Z,9.30
2018-12-26T10:48:24.927Z,9.30
2018-12-26T10:50:52.642Z,9.40
2018-12-26T10:53:20.374Z,9.40
2018-12-26T10:55:48.137Z,9.40
2018-12-26T10:58:15.805Z,9.50
2018-12-26T11:00:43.533Z,9.60
2018-12-26T11:03:11.265Z,9.60
2018-12-26T11:05:38.964Z,9.70
2018-12-26T11:08:06.750Z,9.80
2018-12-26T11:10:34.444Z,9.80
2018-12-26T11:13:02.176Z,9.90
2018-12-26T11:15:29.885Z,9.90
2018-12-26T11:17:57.609Z,10.00
2018-12-26T11:20:25.398Z,10.10
2018-12-26T11:22:53.256Z,10.20
2018-12-26T11:25:20.967Z,10.30
2018-12-26T11:27:48.789Z,10.30
2018-12-26T11:30:16.545Z,10.40
2018-12-26T11:32:46.246Z,10.50
2018-12-26T11:35:13.974Z,10.50
2018-12-26T11:37:41.697Z,10.60
2018-12-26T11:40:09.814Z,10.70
2018-12-26T11:42:37.526Z,10.80
2018-12-26T11:45:06.052Z,10.80
2018-12-26T11:47:33.866Z,11.00
2018-12-26T11:50:01.575Z,11.00
2018-12-26T11:52:29.294Z,11.10
2018-12-26T11:54:57.007Z,11.10
2018-12-26T11:57:24.700Z,11.20
2018-12-26T11:59:52.424Z,11.20
2018-12-26T12:02:20.757Z,11.20
2018-12-26T12:04:48.629Z,11.20
2018-12-26T12:07:16.377Z,11.30
2018-12-26T12:09:44.106Z,11.40
2018-12-26T12:12:11.799Z,11.40
2018-12-26T12:14:39.522Z,11.50
2018-12-26T12:17:07.243Z,11.50
2018-12-26T12:19:35.062Z,11.60
2018-12-26T12:22:02.788Z,11.60
2018-12-26T12:24:30.479Z,11.70
2018-12-26T12:26:58.181Z,11.70
2018-12-26T12:29:25.936Z,11.80
2018-12-26T12:31:53.646Z,11.80
2018-12-26T12:34:21.349Z,11.90
2018-12-26T12:36:49.130Z,11.90
2018-12-26T12:39:16.834Z,11.90
2018-12-26T12:41:44.533Z,11.90
2018-12-26T12:44:12.273Z,11.90
2018-12-26T12:46:39.982Z,12.00
2018-12-26T12:49:07.850Z,12.00
2018-12-26T12:51:35.609Z,12.00
2018-12-26T12:54:03.318Z,12.00
2018-12-26T12:56:31.024Z,12.10
2018-12-26T12:58:58.736Z,12.20
2018-12-26T13:01:26.448Z,12.20
2018-12-26T13:03:54.144Z,12.20
2018-12-26T13:06:21.860Z,12.20
2018-12-26T13:08:49.570Z,12.30
2018-12-26T13:11:17.267Z,12.30
2018-12-26T13:13:45.021Z,12.30
2018-12-26T13:16:12.701Z,12.30
2018-12-26T13:18:40.419Z,12.40
2018-12-26T13:21:08.207Z,12.40
2018-12-26T13:23:35.936Z,12.40
2018-12-26T13:26:03.655Z,12.50
2018-12-26T13:28:31.409Z,12.50
2018-12-26T13:31:05.180Z,12.50
2018-12-26T13:33:32.350Z,12.50
2018-12-26T13:36:00.044Z,12.50
2018-12-26T13:38:27.738Z,12.50
2018-12-26T13:40:55.439Z,12.50
2018-12-26T13:43:23.159Z,12.50
2018-12-26T13:45:50.912Z,12.50
2018-12-26T13:48:18.542Z,12.50
2018-12-26T13:50:46.266Z,12.60
2018-12-26T13:53:14.008Z,12.50
2018-12-26T13:55:41.701Z,12.50
2018-12-26T13:58:09.431Z,12.50
2018-12-26T14:00:37.188Z,12.50
2018-12-26T14:03:05.021Z,12.60
2018-12-26T14:05:34.532Z,12.50
2018-12-26T14:08:02.250Z,12.50
2018-12-26T14:10:29.964Z,12.60
2018-12-26T14:12:57.687Z,12.50
2018-12-26T14:15:25.394Z,12.50
2018-12-26T14:17:53.108Z,12.50
2018-12-26T14:20:20.856Z,12.50
2018-12-26T14:22:48.464Z,12.60
2018-12-26T14:25:16.177Z,12.50
2018-12-26T14:27:44.854Z,12.60
2018-12-26T14:30:12.560Z,12.50
2018-12-26T14:32:40.214Z,12.50
2018-12-26T14:35:07.921Z,12.50
2018-12-26T14:37:35.621Z,12.50
2018-12-26T14:40:03.614Z,12.40
2018-12-26T14:42:31.349Z,12.40
2018-12-26T14:44:59.060Z,12.40
2018-12-26T14:47:26.759Z,12.40
2018-12-26T14:49:54.521Z,12.30
2018-12-26T14:52:22.208Z,12.30
2018-12-26T14:54:49.929Z,12.30
2018-12-26T14:57:17.667Z,12.30
2018-12-26T14:59:45.375Z,12.40
2018-12-26T15:02:13.073Z,12.40
2018-12-26T15:04:40.812Z,12.30
2018-12-26T15:07:08.551Z,12.30
2018-12-26T15:09:36.889Z,12.30
2018-12-26T15:12:04.609Z,12.30
2018-12-26T15:14:32.345Z,12.30
2018-12-26T15:17:00.065Z,12.20
2018-12-26T15:19:27.955Z,12.30
2018-12-26T15:21:55.953Z,12.20
2018-12-26T15:24:23.654Z,12.10
2018-12-26T15:26:51.399Z,12.00
2018-12-26T15:29:19.106Z,11.90
2018-12-26T15:31:46.805Z,11.90
2018-12-26T15:34:14.521Z,11.90
2018-12-26T15:36:42.381Z,11.80
2018-12-26T15:39:10.702Z,11.80
2018-12-26T15:41:38.410Z,11.70
2018-12-26T15:44:06.171Z,11.70
2018-12-26T15:46:34.710Z,11.60
2018-12-26T15:49:02.449Z,11.50
2018-12-26T15:51:30.152Z,11.40
2018-12-26T15:53:57.888Z,11.30
2018-12-26T15:56:25.606Z,11.20
2018-12-26T15:58:53.305Z,11.10
2018-12-26T16:01:21.005Z,11.00
2018-12-26T16:03:48.848Z,11.00
2018-12-26T16:06:16.490Z,10.90
2018-12-26T16:08:44.190Z,10.80
2018-12-26T16:11:11.912Z,10.70
2018-12-26T16:13:39.610Z,10.60
2018-12-26T16:16:07.342Z,10.50
2018-12-26T16:18:35.067Z,10.40
2018-12-26T16:21:02.825Z,10.30
2018-12-26T16:23:30.526Z,10.20
2018-12-26T16:25:58.248Z,10.10
2018-12-26T16:28:25.860Z,10.00
2018-12-26T16:30:53.582Z,10.00
2018-12-26T16:33:21.310Z,9.80
2018-12-26T16:35:49.029Z,9.70
2018-12-26T16:38:16.734Z,9.60
2018-12-26T16:40:44.458Z,9.50
2018-12-26T16:43:12.162Z,9.40
2018-12-26T16:45:39.861Z,9.40
2018-12-26T16:48:07.594Z,9.40
2018-12-26T16:50:35.381Z,9.30
2018-12-26T16:53:03.078Z,9.30
2018-12-26T16:55:30.803Z,9.20
2018-12-26T16:57:58.502Z,9.20
2018-12-26T17:00:26.204Z,9.10
2018-12-26T17:02:54.061Z,9.00
2018-12-26T17:05:21.790Z,8.90
2018-12-26T17:07:49.483Z,8.90
2018-12-26T17:10:18.706Z,8.80
2018-12-26T17:12:46.432Z,8.70
2018-12-26T17:15:14.157Z,8.60
2018-12-26T17:17:41.919Z,8.50
2018-12-26T17:20:09.661Z,8.40
2018-12-26T17:22:37.432Z,8.40
2018-12-26T17:25:05.213Z,8.30
2018-12-26T17:27:32.941Z,8.20
2018-12-26T17:30:00.643Z,8.10
2018-12-26T17:32:28.393Z,8.10
2018-12-26T17:34:56.117Z,8.00
2018-12-26T17:37:23.814Z,7.90
2018-12-26T17:39:51.559Z,7.90
2018-12-26T17:42:19.249Z,7.90
2018-12-26T17:44:46.935Z,7.90
2018-12-26T17:47:14.651Z,7.80
2018-12-26T17:49:42.370Z,7.70
2018-12-26T17:52:10.070Z,7.70
2018-12-26T17:55:15.855Z,7.60
2018-12-26T17:57:46.559Z,7.60
2018-12-26T18:00:21.531Z,7.60
2018-12-26T18:02:49.229Z,7.50
2018-12-26T18:05:17.814Z,7.40
2018-12-26T18:07:46.525Z,7.40
2018-12-26T18:10:14.253Z,7.30
2018-12-26T18:12:41.956Z,7.30
2018-12-26T18:15:10.637Z,7.20
2018-12-26T18:17:38.459Z,7.20
2018-12-26T18:20:08.319Z,7.10
2018-12-26T18:22:36.049Z,7.10
2018-12-26T18:25:04.624Z,7.10
2018-12-26T18:27:32.319Z,7.10
2018-12-26T18:30:00.036Z,7.10
2018-12-26T18:32:27.721Z,7.00
2018-12-26T18:34:55.455Z,6.90
2018-12-26T18:37:23.196Z,6.80
2018-12-26T18:39:50.883Z,6.70
2018-12-26T18:42:18.709Z,6.70
2018-12-26T18:44:46.430Z,6.60
2018-12-26T18:47:14.125Z,6.60
2018-12-26T18:49:41.829Z,6.60
2018-12-26T18:52:09.546Z,6.60
2018-12-26T18:54:37.242Z,6.60
2018-12-26T18:57:04.941Z,6.60
2018-12-26T18:59:32.660Z,6.60
2018-12-26T19:02:00.359Z,6.60
2018-12-26T19:04:28.052Z,6.60
2018-12-26T19:06:55.763Z,6.50
2018-12-26T19:09:23.457Z,6.50
2018-12-26T19:11:51.157Z,6.50
2018-12-26T19:14:18.906Z,6.40
2018-12-26T19:16:46.611Z,6.30
2018-12-26T19:19:14.315Z,6.30
2018-12-26T19:21:42.069Z,6.30
2018-12-26T19:24:09.769Z,6.20
2018-12-26T19:26:37.462Z,6.20
2018-12-26T19:29:05.174Z,6.10
2018-12-26T19:31:39.436Z,6.10
2018-12-26T19:34:02.368Z,6.00
2018-12-26T19:36:30.133Z,6.00
2018-12-26T19:38:57.861Z,5.90
2018-12-26T19:41:25.561Z,5.80
2018-12-26T19:43:53.281Z,5.80
2018-12-26T19:46:20.981Z,5.80
2018-12-26T19:48:48.682Z,5.80
2018-12-26T19:51:16.397Z,5.80
2018-12-26T19:53:44.113Z,5.70
2018-12-26T19:56:11.809Z,5.70
2018-12-26T19:58:39.530Z,5.70
2018-12-26T20:01:07.260Z,5.70
2018-12-26T20:03:34.913Z,5.70
2018-12-26T20:06:02.690Z,5.60
2018-12-26T20:08:30.406Z,5.60
2018-12-26T20:10:58.111Z,5.60
2018-12-26T20:13:25.840Z,5.60
2018-12-26T20:15:53.559Z,5.50
2018-12-26T20:18:21.238Z,5.50
2018-12-26T20:20:48.966Z,5.40
2018-12-26T20:23:16.697Z,5.40
2018-12-26T20:25:44.393Z,5.30
2018-12-26T20:28:12.108Z,5.30
2018-12-26T20:30:39.824Z,5.30
2018-12-26T20:33:07.525Z,5.30
2018-12-26T20:35:35.246Z,5.30
2018-12-26T20:38:02.945Z,5.30
2018-12-26T20:40:30.645Z,5.30
2018-12-26T20:42:58.372Z,5.30
2018-12-26T20:45:26.076Z,5.30
2018-12-26T20:47:53.774Z,5.30
2018-12-26T20:50:21.493Z,5.20
2018-12-26T20:52:49.245Z,5.20
2018-12-26T20:55:16.954Z,5.30
2018-12-26T20:57:44.670Z,5.20
2018-12-26T21:00:12.355Z,5.20
2018-12-26T21:02:40.047Z,5.10
2018-12-26T21:05:08.870Z,5.00
2018-12-26T21:07:36.577Z,4.90
2018-12-26T21:10:06.654Z,4.90
2018-12-26T21:12:34.149Z,4.90
2018-12-26T21:15:01.933Z,4.80
2018-12-26T21:17:29.647Z,4.80
2018-12-26T21:19:57.384Z,4.80
2018-12-26T21:22:25.077Z,4.80
2018-12-26T21:24:52.805Z,4.80
2018-12-26T21:27:20.508Z,4.90
2018-12-26T21:29:48.193Z,4.80
2018-12-26T21:32:15.885Z,4.90
2018-12-26T21:34:43.594Z,4.80
2018-12-26T21:37:11.297Z,4.80
2018-12-26T21:39:39.001Z,4.80
2018-12-26T21:42:06.728Z,4.80
2018-12-26T21:44:34.425Z,4.70
2018-12-26T21:47:02.137Z,4.70
2018-12-26T21:49:29.868Z,4.60
2018-12-26T21:51:58.000Z,4.60
2018-12-26T21:54:25.717Z,4.60
2018-12-26T21:56:53.422Z,4.60
2018-12-26T21:59:21.133Z,4.60
2018-12-26T22:01:48.826Z,4.60
2018-12-26T22:04:16.561Z,4.60
2018-12-26T22:06:44.201Z,4.50
2018-12-26T22:09:11.909Z,4.50
2018-12-26T22:11:39.686Z,4.50
2018-12-26T22:14:07.408Z,4.40
2018-12-26T22:16:35.143Z,4.40
2018-12-26T22:19:02.846Z,4.40
2018-12-26T22:21:30.549Z,4.50
2018-12-26T22:23:58.281Z,4.40
2018-12-26T22:26:26.046Z,4.40
2018-12-26T22:28:53.740Z,4.40
2018-12-26T22:31:21.434Z,4.40
2018-12-26T22:33:49.153Z,4.40
2018-12-26T22:36:16.845Z,4.50
2018-12-26T22:38:44.553Z,4.50
2018-12-26T22:41:12.282Z,4.50
2018-12-26T22:43:39.978Z,4.50
2018-12-26T22:46:07.687Z,4.40
2018-12-26T22:48:35.402Z,4.40
2018-12-26T22:51:03.133Z,4.30
2018-12-26T22:53:30.824Z,4.30
2018-12-26T22:55:58.546Z,4.20
2018-12-26T22:58:26.229Z,4.20
2018-12-26T23:00:54.632Z,4.20
2018-12-26T23:03:22.354Z,4.10
2018-12-26T23:05:50.045Z,4.10
2018-12-26T23:08:17.738Z,4.10
2018-12-26T23:10:45.477Z,4.10
2018-12-26T23:13:13.185Z,4.20
2018-12-26T23:15:40.885Z,4.20
2018-12-26T23:18:08.654Z,4.30
2018-12-26T23:20:36.453Z,4.30
2018-12-26T23:23:04.235Z,4.30
2018-12-26T23:25:31.933Z,4.20
2018-12-26T23:27:59.629Z,4.10
2018-12-26T23:30:27.325Z,4.00
2018-12-26T23:32:55.057Z,3.90
2018-12-26T23:35:22.776Z,3.90
2018-12-26T23:37:50.474Z,3.80
2018-12-26T23:40:18.204Z,3.80
2018-12-26T23:42:45.892Z,3.80
2018-12-26T23:45:13.585Z,3.80
2018-12-26T23:47:41.325Z,3.80
2018-12-26T23:50:09.029Z,3.80
2018-12-26T23:52:36.742Z,3.90
2018-12-26T23:55:04.840Z,3.80
2018-12-26T23:57:32.541Z,3.80
